Share

Burnside, KY (42519)

10:47 AM EDT on April 23, 2014 (GMT -0400)
KKYBURNS2 Elev 1200 ft | 36.90 °N, 84.56 °W | Change Station
Active Advisory: Special Statement

Current weather conditions updated 1 second ago

Clear
Clear
53.1 °F
Feels Like 53.1 °F
N
0.0
Wind Variable Wind from WNW
Gusts 0.0 mph
Sunrise 6:53 AM
Sunset 8:19 PM
Moon Waning Crescent

Today is forecast to be Much Cooler than yesterday.

Pressure 30.10 in
Visibility 10.0 miles
Clouds Clear
Dew Point 19 °F
Humidity 26%
Rainfall 0.00 in
Snow Depth Not available.
UV 6 out of 16
Pollen 10.10 out of 12
Air Quality Not available.
Flu Activity Sporadic
METAR KSME 231435Z AUTO 06006KT 10SM CLR 11/M01 A3010 RMK AO2

More Conditions Fewer Conditions

Pressure 30.10 in
Visibility 10.0 miles
Clouds Clear
Dew Point 19 °F
Humidity 26%
Rainfall 0.00 in
Snow Depth Not available.
UV 6 out of 16
Pollen 10.10 out of 12
Air Quality Not available.
Flu Activity Sporadic
METAR KSME 231435Z AUTO 06006KT 10SM CLR 11/M01 A3010 RMK AO2

More Conditions Fewer Conditions

10-Day Weather Forecast

Almanac

Astronomy

Apr. 23, 2014 Rise Set
Actual Time 6:53 AM EDT 8:19 PM EDT
Civil Twilight 6:26 AM EDT 8:47 PM EDT
Nautical Twilight 5:53 AM EDT 9:20 PM EDT
Astronomical Twilight 5:19 AM EDT 9:54 PM EDT
Moon 3:15 AM EDT 2:35 PM EDT
Length of Visible Light 14h 21m
Length of Day
13h 26m
Tomorrow will be 2m 9s longer.
Waning Crescent, 35% of the Moon is Illuminated
Today
Waning Crescent
Apr 29
New
May 6
First Quarter
May 14
Full
May 21
Last Quarter

Today's Extremes

State Highs State Lows

Community

  • spring flowers
    spring flowers
  • Earth Day Spectrum Ove' Blue
    Earth Day Spectrum Ove' Blue
  • BARN B&W
    BARN B&W
  • April Sunset
    April Sunset
  • Waiting..
    Waiting..

WunderPhotos

Upload Photos

1,704,299 photos uploaded!

Nearby

Snow Depth

Station Depth Elevation
No new snow has been reported.

Coastal Water Temperatures

Place Temperature
No Stations Reporting

Earthquake Activity

City Distance Mag. Time & Date
No recent earthquake activity has been reported nearby.
Minimum magnitude displayed is 2.5.

Nearby Weather Stations

Station Location Temp. Dew Point Humidity Wind Precip. Elev Updated Type
Burnside, KY 53.1 °F 19 °F 26% WNW  at  0.0 mph 0.00 in / hr 1200 ft 10:47 AM EDT Rapid Fire
RAWS SOMERSET KY, Ferguson, KY 51 °F 31 °F 46% NNW  at  7 mph 0.00 in / hr 920 ft 10:01 AM EDT MADIS
Clover Pointe, Somerset, KY 54.9 °F 34 °F 45% North  at  3.1 mph 0.00 in / hr 991 ft 10:47 AM EDT Rapid Fire
HALLS BACKYARD WEATHER, SCIENCE HILL, KY 57.0 °F 33 °F 40% WNW  at  0.0 mph 0.00 in / hr 1076 ft 10:47 AM EDT Normal

Show More Stations Show Fewer Stations

What do you think?

We're not finished. Please let us know what you like, what you don't like, and what you are still missing.